Time;durP1;ratioP1;P1;durP2;ratioP2;P2;SDS_P1;SDS_P2;PMS_P1;PMS_P2;Temp;Humidity;BMP_temperature;BMP_pressure;BME280_temperature;BME280_humidity;BME280_pressure;Samples;Min_cycle;Max_cycle;Signal;HPM_P1;HPM_P2
2022/07/01 00:01:35;;;;;;;13.43;12.32;;;;;;;;;;4988669;28;20485;-61
2022/07/01 00:04:00;;;;;;;12.52;11.52;;;;;;;;;;4987129;28;20456;-61
2022/07/01 00:06:25;;;;;;;14.00;12.80;;;;;;;;;;4986042;28;20040;-61
2022/07/01 00:08:50;;;;;;;13.98;12.60;;;;;;;;;;4988647;28;20065;-61
2022/07/01 00:11:16;;;;;;;12.85;11.65;;;;;;;;;;4988573;28;20553;-61
2022/07/01 00:13:41;;;;;;;12.77;11.57;;;;;;;;;;4988424;28;20030;-61
2022/07/01 00:16:06;;;;;;;13.13;11.63;;;;;;;;;;4987410;28;20026;-61
2022/07/01 00:18:32;;;;;;;14.02;12.73;;;;;;;;;;4986454;28;20041;-62
2022/07/01 00:20:57;;;;;;;13.90;11.50;;;;;;;;;;4988058;28;20060;-61
2022/07/01 00:23:22;;;;;;;13.30;12.07;;;;;;;;;;4986375;28;20034;-63
2022/07/01 00:25:48;;;;;;;12.15;10.93;;;;;;;;;;4986839;28;20054;-63
2022/07/01 00:28:13;;;;;;;11.50;10.52;;;;;;;;;;4988198;28;20452;-62
2022/07/01 00:30:38;;;;;;;12.52;11.43;;;;;;;;;;4988289;28;20034;-63
2022/07/01 00:33:03;;;;;;;11.27;10.27;;;;;;;;;;4985725;28;20038;-61
2022/07/01 00:35:29;;;;;;;12.95;11.77;;;;;;;;;;4985477;28;20431;-61
2022/07/01 00:37:54;;;;;;;13.65;11.45;;;;;;;;;;5001707;28;20096;-61
2022/07/01 00:40:20;;;;;;;12.60;11.40;;;;;;;;;;4987497;28;20057;-63
2022/07/01 00:42:45;;;;;;;11.65;10.60;;;;;;;;;;4986612;28;20034;-61
2022/07/01 00:45:11;;;;;;;12.10;10.85;;;;;;;;;;4986137;28;20026;-61
2022/07/01 00:47:37;;;;;;;11.32;10.32;;;;;;;;;;4989507;28;20503;-62
2022/07/01 00:50:12;;;;;;;12.50;11.13;;;;;;;;;;4987963;28;20042;-62
2022/07/01 00:52:41;;;;;;;11.73;10.68;;;;;;;;;;4985682;28;20029;-61
2022/07/01 00:55:07;;;;;;;12.50;10.15;;;;;;;;;;4987029;28;20018;-63
2022/07/01 00:57:34;;;;;;;14.82;10.00;;;;;;;;;;4987202;28;20121;-62
2022/07/01 01:00:00;;;;;;;12.07;10.95;;;;;;;;;;4986009;28;20026;-61
2022/07/01 01:02:25;;;;;;;12.43;10.07;;;;;;;;;;4985514;28;20399;-62
2022/07/01 01:04:51;;;;;;;11.60;10.38;;;;;;;;;;4988619;28;20034;-62
2022/07/01 01:07:16;;;;;;;11.27;10.13;;;;;;;;;;4987676;28;20109;-61
2022/07/01 01:09:41;;;;;;;11.57;10.55;;;;;;;;;;4984682;28;20058;-62
2022/07/01 01:12:07;;;;;;;10.48;9.38;;;;;;;;;;4986712;28;20561;-64
2022/07/01 01:14:45;;;;;;;11.55;10.48;;;;;;;;;;4988992;28;20022;-61
2022/07/01 01:17:10;;;;;;;10.75;9.75;;;;;;;;;;4986786;28;20062;-61
2022/07/01 01:19:36;;;;;;;9.98;9.02;;;;;;;;;;4985921;28;20540;-61
2022/07/01 01:22:01;;;;;;;11.25;10.15;;;;;;;;;;4983290;28;20548;-61
2022/07/01 01:24:26;;;;;;;10.43;9.20;;;;;;;;;;4988359;28;20038;-62
2022/07/01 01:26:52;;;;;;;11.27;10.27;;;;;;;;;;4987304;28;20027;-63
2022/07/01 01:29:17;;;;;;;11.93;9.65;;;;;;;;;;4985771;28;20042;-63
2022/07/01 01:31:42;;;;;;;13.00;10.55;;;;;;;;;;4984937;28;20027;-62
2022/07/01 01:34:07;;;;;;;12.38;11.27;;;;;;;;;;4986355;28;20443;-63
2022/07/01 01:36:33;;;;;;;11.07;10.07;;;;;;;;;;4988323;28;20566;-63
2022/07/01 01:41:53;;;;;;;11.52;10.43;;;;;;;;;;4976900;28;20077;-63
2022/07/01 01:44:18;;;;;;;13.48;12.18;;;;;;;;;;4987783;28;20726;-61
2022/07/01 01:46:44;;;;;;;14.93;11.80;;;;;;;;;;5000869;28;20139;-63
2022/07/01 01:49:10;;;;;;;12.20;11.20;;;;;;;;;;4983741;28;20838;-61
2022/07/01 01:51:35;;;;;;;12.88;11.82;;;;;;;;;;4987212;28;20038;-63
2022/07/01 01:54:00;;;;;;;12.95;11.75;;;;;;;;;;4988542;28;20084;-63
2022/07/01 01:56:26;;;;;;;13.55;12.35;;;;;;;;;;4985637;28;20312;-63
2022/07/01 01:58:52;;;;;;;14.10;12.73;;;;;;;;;;4983599;28;20273;-61
2022/07/01 02:01:17;;;;;;;14.45;13.05;;;;;;;;;;4988468;28;20133;-63
2022/07/01 02:03:43;;;;;;;14.35;12.93;;;;;;;;;;4987536;28;20038;-63
2022/07/01 02:06:09;;;;;;;14.02;12.80;;;;;;;;;;4985326;28;20026;-63
2022/07/01 02:08:35;;;;;;;14.52;13.32;;;;;;;;;;4984472;28;20659;-63
2022/07/01 02:11:00;;;;;;;15.05;13.73;;;;;;;;;;4987774;28;20034;-62
2022/07/01 02:13:25;;;;;;;15.00;13.60;;;;;;;;;;4986856;28;20034;-62
2022/07/01 02:15:51;;;;;;;14.45;13.05;;;;;;;;;;4985726;28;20025;-62
2022/07/01 02:18:16;;;;;;;14.15;12.88;;;;;;;;;;4989424;28;20038;-61
2022/07/01 02:20:42;;;;;;;13.90;12.57;;;;;;;;;;4990920;28;20037;-63
2022/07/01 02:23:07;;;;;;;15.82;14.23;;;;;;;;;;4991084;28;20034;-63
2022/07/01 02:25:33;;;;;;;15.18;13.68;;;;;;;;;;4987428;28;20585;-63
2022/07/01 02:27:58;;;;;;;13.75;12.68;;;;;;;;;;4988524;28;20026;-63
2022/07/01 02:30:24;;;;;;;13.18;11.85;;;;;;;;;;4989821;28;20430;-62
2022/07/01 02:32:49;;;;;;;13.52;12.20;;;;;;;;;;4991038;28;20440;-63
2022/07/01 02:35:14;;;;;;;13.90;12.70;;;;;;;;;;4988953;28;20113;-62
2022/07/01 02:37:39;;;;;;;15.10;13.27;;;;;;;;;;4990557;28;20559;-61
2022/07/01 02:40:05;;;;;;;13.00;12.00;;;;;;;;;;5004179;28;20030;-61
2022/07/01 02:42:34;;;;;;;14.52;12.95;;;;;;;;;;4988312;28;20030;-63
2022/07/01 02:45:00;;;;;;;13.80;12.40;;;;;;;;;;4988651;28;20037;-63
2022/07/01 02:47:30;;;;;;;13.65;12.20;;;;;;;;;;4989557;28;20601;-64
2022/07/01 02:49:55;;;;;;;13.45;12.25;;;;;;;;;;4989237;28;20038;-62
2022/07/01 02:52:21;;;;;;;13.77;12.43;;;;;;;;;;4989277;28;20413;-63
2022/07/01 02:54:46;;;;;;;15.10;11.90;;;;;;;;;;4988152;28;20062;-62
2022/07/01 02:57:11;;;;;;;14.75;13.32;;;;;;;;;;4989036;28;20034;-62
2022/07/01 02:59:37;;;;;;;13.45;12.25;;;;;;;;;;4990476;28;20037;-62
2022/07/01 03:02:02;;;;;;;13.65;12.45;;;;;;;;;;4989089;28;20026;-62
2022/07/01 03:04:28;;;;;;;12.40;11.30;;;;;;;;;;4987592;28;20592;-62
2022/07/01 03:06:53;;;;;;;13.60;12.40;;;;;;;;;;4987366;28;20057;-62
2022/07/01 03:09:18;;;;;;;13.52;12.43;;;;;;;;;;4988349;28;20094;-63
2022/07/01 03:11:43;;;;;;;12.85;11.85;;;;;;;;;;4989567;28;20855;-61
2022/07/01 03:14:08;;;;;;;14.40;12.88;;;;;;;;;;4990397;28;20381;-62
2022/07/01 03:16:34;;;;;;;14.50;13.10;;;;;;;;;;4989099;28;20037;-62
2022/07/01 03:19:02;;;;;;;13.40;11.95;;;;;;;;;;4988102;28;20038;-62
2022/07/01 03:21:27;;;;;;;14.85;13.45;;;;;;;;;;4987307;28;20030;-62
2022/07/01 03:23:52;;;;;;;14.05;12.77;;;;;;;;;;4988832;28;20031;-62
2022/07/01 03:26:18;;;;;;;13.40;12.10;;;;;;;;;;4989268;28;20038;-62
2022/07/01 03:28:43;;;;;;;14.25;12.75;;;;;;;;;;4988036;28;20042;-62
2022/07/01 03:31:08;;;;;;;15.05;13.60;;;;;;;;;;4988528;28;20038;-62
2022/07/01 03:33:33;;;;;;;16.80;13.15;;;;;;;;;;4986223;28;20030;-62
2022/07/01 03:35:59;;;;;;;13.80;12.57;;;;;;;;;;4988869;28;20037;-62
2022/07/01 03:38:24;;;;;;;13.30;11.68;;;;;;;;;;4988921;28;20447;-62
2022/07/01 03:40:49;;;;;;;12.40;11.50;;;;;;;;;;4986696;28;20098;-62
2022/07/01 03:43:14;;;;;;;12.88;11.77;;;;;;;;;;4986982;28;20037;-62
2022/07/01 03:45:40;;;;;;;14.07;12.75;;;;;;;;;;4988969;28;20038;-62
2022/07/01 03:48:05;;;;;;;12.63;11.48;;;;;;;;;;4989229;28;20088;-63
2022/07/01 03:50:30;;;;;;;13.65;12.25;;;;;;;;;;4986678;28;20104;-64
2022/07/01 03:55:40;;;;;;;12.45;11.45;;;;;;;;;;4988771;28;20399;-62
2022/07/01 03:58:05;;;;;;;12.13;11.02;;;;;;;;;;4990700;28;20034;-63
2022/07/01 04:00:35;;;;;;;13.18;12.02;;;;;;;;;;5002423;28;20038;-62
2022/07/01 04:03:00;;;;;;;12.27;11.10;;;;;;;;;;4987667;28;20026;-62
2022/07/01 04:05:25;;;;;;;14.00;12.63;;;;;;;;;;4987964;28;20042;-62
2022/07/01 04:07:51;;;;;;;14.18;12.77;;;;;;;;;;4987299;28;20054;-62
2022/07/01 04:10:16;;;;;;;16.48;13.43;;;;;;;;;;4987369;28;20527;-63
2022/07/01 04:12:41;;;;;;;14.90;11.98;;;;;;;;;;4986698;28;20053;-62
2022/07/01 04:15:07;;;;;;;12.38;11.27;;;;;;;;;;4988331;28;20061;-63
2022/07/01 04:17:32;;;;;;;14.95;11.60;;;;;;;;;;4986111;28;20078;-62
2022/07/01 04:19:57;;;;;;;14.02;12.18;;;;;;;;;;4988950;28;20034;-62
2022/07/01 04:22:35;;;;;;;17.58;11.95;;;;;;;;;;4987563;28;20025;-62
2022/07/01 04:25:03;;;;;;;13.20;11.80;;;;;;;;;;4987950;28;20099;-62
2022/07/01 04:27:28;;;;;;;14.77;12.07;;;;;;;;;;4987450;28;20501;-63
2022/07/01 04:29:54;;;;;;;11.68;10.60;;;;;;;;;;4984433;28;20346;-62
2022/07/01 04:32:19;;;;;;;13.77;12.57;;;;;;;;;;5004436;28;20992;-62
2022/07/01 04:34:44;;;;;;;11.95;10.70;;;;;;;;;;4986776;28;20026;-63
2022/07/01 04:37:10;;;;;;;12.30;11.30;;;;;;;;;;4986386;28;20065;-62
2022/07/01 04:39:35;;;;;;;15.07;12.43;;;;;;;;;;4986732;28;20042;-62
2022/07/01 04:42:00;;;;;;;13.25;11.48;;;;;;;;;;4987074;28;20062;-62
2022/07/01 04:44:32;;;;;;;13.27;12.15;;;;;;;;;;4986299;28;20064;-65
2022/07/01 04:46:58;;;;;;;13.25;12.25;;;;;;;;;;4987084;28;20034;-62
2022/07/01 04:49:23;;;;;;;13.15;11.95;;;;;;;;;;4986612;28;20070;-62
2022/07/01 04:51:48;;;;;;;13.98;12.75;;;;;;;;;;4987153;28;20519;-62
2022/07/01 04:54:14;;;;;;;12.65;11.52;;;;;;;;;;4986155;28;20084;-62
2022/07/01 04:56:39;;;;;;;14.50;13.00;;;;;;;;;;4986636;28;20030;-62
2022/07/01 04:59:05;;;;;;;13.85;12.80;;;;;;;;;;4986005;28;20362;-62
2022/07/01 05:01:30;;;;;;;14.88;13.45;;;;;;;;;;4988006;28;20026;-62
2022/07/01 05:03:56;;;;;;;13.52;12.52;;;;;;;;;;4985737;28;20555;-62
2022/07/01 05:06:21;;;;;;;13.82;12.57;;;;;;;;;;4986443;28;20390;-61
2022/07/01 05:08:46;;;;;;;13.13;11.77;;;;;;;;;;4986385;28;20472;-61
2022/07/01 05:11:12;;;;;;;13.13;12.07;;;;;;;;;;4987720;28;20105;-62
2022/07/01 05:13:37;;;;;;;13.63;12.32;;;;;;;;;;4986173;28;20059;-62
2022/07/01 05:16:03;;;;;;;13.93;12.63;;;;;;;;;;4987424;28;20532;-62
2022/07/01 05:23:56;;;;;;;9.52;8.73;;;;;;;;;;4985124;28;20061;-63
2022/07/01 05:26:21;;;;;;;8.65;7.82;;;;;;;;;;4987422;28;20463;-63
2022/07/01 05:28:47;;;;;;;8.38;7.75;;;;;;;;;;4986552;28;20189;-63
2022/07/01 05:31:12;;;;;;;7.18;6.47;;;;;;;;;;4987765;28;20034;-63
2022/07/01 05:33:38;;;;;;;4.97;4.60;;;;;;;;;;4985997;28;20030;-63
2022/07/01 05:36:03;;;;;;;6.05;5.57;;;;;;;;;;4985386;28;20638;-63
2022/07/01 05:38:28;;;;;;;5.43;5.03;;;;;;;;;;4987665;28;20038;-63
2022/07/01 05:40:54;;;;;;;6.18;4.22;;;;;;;;;;4985976;28;20042;-63
2022/07/01 05:43:19;;;;;;;4.18;3.78;;;;;;;;;;4984220;28;20022;-64
2022/07/01 05:45:44;;;;;;;5.25;3.97;;;;;;;;;;4985721;28;20022;-63
2022/07/01 05:48:10;;;;;;;4.88;3.92;;;;;;;;;;4985990;28;20081;-63
2022/07/01 05:50:35;;;;;;;3.83;3.38;;;;;;;;;;4987233;28;20034;-63
2022/07/01 05:53:00;;;;;;;3.92;3.63;;;;;;;;;;4990115;28;20096;-63
2022/07/01 05:55:25;;;;;;;3.42;3.13;;;;;;;;;;4990968;28;20026;-63
2022/07/01 05:57:51;;;;;;;3.38;3.13;;;;;;;;;;4993097;28;20615;-62
2022/07/01 06:00:16;;;;;;;3.53;3.22;;;;;;;;;;4989568;28;20500;-62
2022/07/01 06:02:42;;;;;;;3.75;3.50;;;;;;;;;;4989092;28;20480;-63
2022/07/01 06:05:07;;;;;;;3.17;2.85;;;;;;;;;;4992191;28;20096;-62
2022/07/01 06:07:32;;;;;;;3.47;3.13;;;;;;;;;;4989588;28;20030;-62
2022/07/01 06:09:57;;;;;;;2.22;2.13;;;;;;;;;;4989632;28;20141;-62
2022/07/01 06:12:23;;;;;;;3.80;3.45;;;;;;;;;;4988527;28;20390;-62
2022/07/01 06:14:48;;;;;;;4.20;3.15;;;;;;;;;;4988642;28;20030;-62
2022/07/01 06:17:13;;;;;;;4.97;3.50;;;;;;;;;;4989297;28;20392;-63
2022/07/01 06:19:39;;;;;;;2.75;2.50;;;;;;;;;;4988117;28;20128;-62
2022/07/01 06:22:05;;;;;;;8.90;2.72;;;;;;;;;;4988696;28;20022;-62
2022/07/01 06:24:30;;;;;;;4.32;3.25;;;;;;;;;;4987972;28;20499;-62
2022/07/01 06:26:55;;;;;;;3.20;3.00;;;;;;;;;;4991218;28;20026;-62
2022/07/01 06:29:21;;;;;;;5.75;3.08;;;;;;;;;;4986743;28;20261;-62
2022/07/01 06:31:46;;;;;;;3.22;2.97;;;;;;;;;;4986904;28;20038;-62
2022/07/01 06:34:11;;;;;;;3.75;2.90;;;;;;;;;;4988172;28;20411;-61
2022/07/01 06:36:36;;;;;;;5.63;3.28;;;;;;;;;;4989355;28;20030;-62
2022/07/01 06:39:02;;;;;;;3.50;3.30;;;;;;;;;;4987259;28;20379;-64
2022/07/01 06:41:28;;;;;;;3.47;3.20;;;;;;;;;;4990652;28;20030;-62
2022/07/01 06:43:57;;;;;;;3.10;2.90;;;;;;;;;;4989407;28;20049;-63
2022/07/01 06:46:22;;;;;;;4.05;3.63;;;;;;;;;;4988896;28;20069;-63
2022/07/01 06:48:48;;;;;;;3.97;3.60;;;;;;;;;;4987635;28;20144;-62
2022/07/01 06:51:13;;;;;;;4.78;2.90;;;;;;;;;;4987902;28;20067;-62
2022/07/01 06:53:38;;;;;;;4.47;4.07;;;;;;;;;;4989377;28;20477;-62
2022/07/01 06:56:04;;;;;;;3.60;3.40;;;;;;;;;;4988544;28;20110;-62
2022/07/01 06:58:29;;;;;;;3.95;3.65;;;;;;;;;;4988997;28;20045;-63
2022/07/01 07:00:54;;;;;;;3.92;3.63;;;;;;;;;;4988770;28;20038;-62
2022/07/01 07:03:20;;;;;;;5.88;5.38;;;;;;;;;;4989745;28;20053;-62
2022/07/01 07:05:45;;;;;;;5.20;3.75;;;;;;;;;;4986521;28;20041;-63
2022/07/01 07:08:11;;;;;;;5.28;4.70;;;;;;;;;;4938181;28;1417897;-63
2022/07/01 07:10:36;;;;;;;5.78;5.00;;;;;;;;;;5004298;28;20097;-62
2022/07/01 07:13:01;;;;;;;4.43;4.13;;;;;;;;;;4989818;28;20470;-62
2022/07/01 07:15:26;;;;;;;5.80;4.25;;;;;;;;;;4988486;28;20062;-62
2022/07/01 07:17:54;;;;;;;5.95;4.63;;;;;;;;;;4986682;28;20152;-62
2022/07/01 07:20:19;;;;;;;4.07;3.78;;;;;;;;;;4989649;28;20077;-62
2022/07/01 07:22:44;;;;;;;4.13;3.72;;;;;;;;;;4990168;28;20029;-62
2022/07/01 07:25:09;;;;;;;4.43;4.20;;;;;;;;;;4988811;28;20037;-62
2022/07/01 07:27:34;;;;;;;4.30;4.00;;;;;;;;;;4987422;28;20030;-62
2022/07/01 07:30:00;;;;;;;4.13;3.83;;;;;;;;;;4989133;28;20040;-62
2022/07/01 07:32:25;;;;;;;4.53;4.22;;;;;;;;;;4989714;28;20034;-62
2022/07/01 07:34:50;;;;;;;4.25;3.95;;;;;;;;;;4987284;28;20037;-62
2022/07/01 07:37:16;;;;;;;4.55;4.25;;;;;;;;;;4988327;28;20034;-62
2022/07/01 07:39:41;;;;;;;4.22;3.83;;;;;;;;;;4988969;28;20030;-62
2022/07/01 07:42:06;;;;;;;4.80;4.38;;;;;;;;;;4989293;28;20037;-62
2022/07/01 07:44:31;;;;;;;4.55;4.22;;;;;;;;;;4986869;28;20088;-63
2022/07/01 07:46:57;;;;;;;4.78;4.32;;;;;;;;;;4987907;28;20510;-62
2022/07/01 07:49:22;;;;;;;4.70;4.20;;;;;;;;;;4988050;28;20333;-61
2022/07/01 07:51:47;;;;;;;4.65;4.25;;;;;;;;;;4988846;28;21045;-62
2022/07/01 07:54:13;;;;;;;4.20;3.90;;;;;;;;;;4985977;28;20029;-63
2022/07/01 07:56:38;;;;;;;4.93;4.53;;;;;;;;;;4987044;28;20027;-62
2022/07/01 07:59:04;;;;;;;4.68;4.38;;;;;;;;;;4988576;28;20034;-62
2022/07/01 08:01:29;;;;;;;5.13;4.63;;;;;;;;;;4988039;28;20057;-62
2022/07/01 08:03:54;;;;;;;4.80;4.50;;;;;;;;;;4988112;28;20476;-62
2022/07/01 08:06:20;;;;;;;4.97;4.63;;;;;;;;;;4988810;28;20031;-62
2022/07/01 08:08:46;;;;;;;4.95;4.55;;;;;;;;;;4987399;28;20204;-62
2022/07/01 08:11:11;;;;;;;7.47;4.97;;;;;;;;;;4987780;28;20037;-62
2022/07/01 08:13:36;;;;;;;5.13;4.53;;;;;;;;;;4987041;28;20038;-62
2022/07/01 08:16:02;;;;;;;5.25;4.75;;;;;;;;;;4988186;28;20038;-62
2022/07/01 08:18:27;;;;;;;5.18;4.88;;;;;;;;;;4988645;28;20452;-61
2022/07/01 08:20:52;;;;;;;5.40;4.55;;;;;;;;;;4988142;28;20520;-62
2022/07/01 08:23:21;;;;;;;5.40;5.00;;;;;;;;;;4984682;28;20045;-63
2022/07/01 08:25:50;;;;;;;5.68;4.40;;;;;;;;;;4989570;28;20060;-62
2022/07/01 08:28:15;;;;;;;6.00;5.38;;;;;;;;;;4988304;28;20034;-62
2022/07/01 08:30:41;;;;;;;5.18;4.78;;;;;;;;;;4986483;28;20385;-63
2022/07/01 08:33:06;;;;;;;5.25;4.47;;;;;;;;;;4985827;28;20034;-62
2022/07/01 08:35:31;;;;;;;5.22;4.72;;;;;;;;;;4988547;28;20066;-62
2022/07/01 08:37:56;;;;;;;5.07;4.68;;;;;;;;;;4987532;28;20031;-62
2022/07/01 08:40:26;;;;;;;5.45;5.15;;;;;;;;;;4986369;28;20472;-62
2022/07/01 08:42:54;;;;;;;4.95;4.45;;;;;;;;;;4985796;28;20398;-62
2022/07/01 08:45:19;;;;;;;5.18;4.85;;;;;;;;;;4990355;28;20391;-62
2022/07/01 08:47:49;;;;;;;5.60;5.20;;;;;;;;;;4988914;28;20041;-62
2022/07/01 08:50:14;;;;;;;5.93;5.38;;;;;;;;;;4985280;28;20535;-62
2022/07/01 08:52:39;;;;;;;5.18;4.78;;;;;;;;;;4985914;28;20493;-62
2022/07/01 08:55:04;;;;;;;7.20;5.18;;;;;;;;;;4989665;28;20388;-62
2022/07/01 08:57:30;;;;;;;6.03;4.93;;;;;;;;;;4986329;28;20069;-62
2022/07/01 09:00:06;;;;;;;5.78;5.30;;;;;;;;;;4986965;28;20073;-61
2022/07/01 09:02:51;;;;;;;6.03;5.45;;;;;;;;;;4986732;28;20409;-61
2022/07/01 09:05:16;;;;;;;5.43;4.93;;;;;;;;;;4987753;28;20022;-62
2022/07/01 09:07:42;;;;;;;5.95;5.55;;;;;;;;;;4986034;28;20081;-62
2022/07/01 09:10:18;;;;;;;5.82;5.32;;;;;;;;;;4985708;28;20057;-62
2022/07/01 09:12:43;;;;;;;5.75;5.25;;;;;;;;;;4985308;28;20030;-62
2022/07/01 09:15:28;;;;;;;6.28;5.82;;;;;;;;;;4988530;28;20144;-62
2022/07/01 09:17:54;;;;;;;6.32;5.82;;;;;;;;;;4984829;28;20034;-62
2022/07/01 09:20:26;;;;;;;6.18;5.55;;;;;;;;;;4986493;28;20030;-61
2022/07/01 09:23:05;;;;;;;6.63;6.05;;;;;;;;;;4987302;28;20064;-61
2022/07/01 09:25:37;;;;;;;6.43;5.80;;;;;;;;;;4986453;28;20026;-61
2022/07/01 09:28:18;;;;;;;7.93;5.70;;;;;;;;;;4986317;28;20042;-62
2022/07/01 09:30:45;;;;;;;7.07;6.20;;;;;;;;;;4985691;28;20050;-63
2022/07/01 09:33:10;;;;;;;7.53;6.90;;;;;;;;;;4986867;28;20026;-62
2022/07/01 09:35:38;;;;;;;6.97;6.45;;;;;;;;;;4986955;28;20488;-62
2022/07/01 09:38:05;;;;;;;7.63;6.90;;;;;;;;;;4986954;28;20029;-62
2022/07/01 09:40:52;;;;;;;8.30;7.70;;;;;;;;;;4986714;28;20034;-63
2022/07/01 09:43:18;;;;;;;8.60;8.00;;;;;;;;;;4988354;28;20097;-62
2022/07/01 09:45:53;;;;;;;8.07;7.38;;;;;;;;;;4985596;28;20037;-63
2022/07/01 09:48:18;;;;;;;;;;;;;;;;;;4983851;28;20042;-62
2022/07/01 09:50:44;;;;;;;7.90;7.07;;;;;;;;;;4986903;28;20431;-62
2022/07/01 09:53:10;;;;;;;8.73;7.95;;;;;;;;;;4988209;28;20041;-64
2022/07/01 09:55:36;;;;;;;7.97;7.30;;;;;;;;;;4984401;28;20030;-61
2022/07/01 09:58:01;;;;;;;8.02;7.25;;;;;;;;;;4985208;28;20073;-63
2022/07/01 10:00:27;;;;;;;10.88;8.82;;;;;;;;;;4985991;28;20469;-62
2022/07/01 10:02:54;;;;;;;8.23;7.63;;;;;;;;;;4986126;28;20054;-62
2022/07/01 10:05:20;;;;;;;7.47;6.75;;;;;;;;;;4985116;28;20526;-62
2022/07/01 10:08:00;;;;;;;7.57;7.07;;;;;;;;;;4999398;28;20037;-61
2022/07/01 10:10:31;;;;;;;8.00;7.35;;;;;;;;;;4967698;28;20058;-62
2022/07/01 10:12:57;;;;;;;7.43;6.82;;;;;;;;;;4968616;28;20092;-61
2022/07/01 10:15:23;;;;;;;6.82;6.32;;;;;;;;;;4963985;28;20387;-60
2022/07/01 10:17:49;;;;;;;7.43;6.82;;;;;;;;;;4965817;28;20065;-61
2022/07/01 10:20:18;;;;;;;9.10;7.75;;;;;;;;;;4967448;28;20038;-64
2022/07/01 10:22:45;;;;;;;7.53;6.95;;;;;;;;;;4968523;28;20042;-64
2022/07/01 10:25:29;;;;;;;7.47;6.88;;;;;;;;;;4966867;28;20060;-64
2022/07/01 10:28:15;;;;;;;7.90;7.20;;;;;;;;;;4967575;28;20041;-65
2022/07/01 10:30:55;;;;;;;8.00;7.25;;;;;;;;;;4966546;28;20477;-64
2022/07/01 10:33:32;;;;;;;7.70;7.18;;;;;;;;;;4966466;28;20115;-67
2022/07/01 10:36:20;;;;;;;7.50;6.85;;;;;;;;;;4966614;28;20547;-65
2022/07/01 10:39:00;;;;;;;8.40;7.57;;;;;;;;;;4971330;28;20042;-64
2022/07/01 10:41:26;;;;;;;7.40;6.80;;;;;;;;;;4971035;28;20043;-69
2022/07/01 10:43:53;;;;;;;9.48;8.48;;;;;;;;;;4971951;28;20418;-64
2022/07/01 10:46:37;;;;;;;8.50;7.82;;;;;;;;;;4971714;28;20126;-65
2022/07/01 10:49:03;;;;;;;9.13;7.95;;;;;;;;;;4971195;28;20122;-65
2022/07/01 10:51:50;;;;;;;7.05;6.50;;;;;;;;;;4971167;28;20042;-64
2022/07/01 10:54:39;;;;;;;8.45;7.65;;;;;;;;;;4971277;28;20469;-66
2022/07/01 10:57:19;;;;;;;20.08;15.00;;;;;;;;;;4961981;28;20045;-66
2022/07/01 10:59:48;;;;;;;8.60;7.88;;;;;;;;;;4970929;28;20039;-66
2022/07/01 11:02:20;;;;;;;7.75;7.05;;;;;;;;;;4971647;28;20536;-65
2022/07/01 11:04:45;;;;;;;8.43;7.60;;;;;;;;;;4969865;28;20066;-65
2022/07/01 11:07:11;;;;;;;8.20;7.50;;;;;;;;;;4970612;28;20161;-65
2022/07/01 11:09:36;;;;;;;8.30;7.63;;;;;;;;;;4981892;28;20058;-65
2022/07/01 11:12:02;;;;;;;8.75;8.18;;;;;;;;;;4989178;28;20092;-65
2022/07/01 11:14:27;;;;;;;8.00;7.30;;;;;;;;;;4989869;28;20534;-65
2022/07/01 11:16:54;;;;;;;8.32;7.53;;;;;;;;;;4988846;28;20034;-65
2022/07/01 11:19:19;;;;;;;8.25;7.55;;;;;;;;;;4988249;28;20335;-65
2022/07/01 11:21:51;;;;;;;7.93;7.13;;;;;;;;;;4988269;28;20295;-65
2022/07/01 11:24:17;;;;;;;7.97;7.15;;;;;;;;;;4989595;28;20602;-65
2022/07/01 11:26:42;;;;;;;7.20;6.70;;;;;;;;;;4988577;28;20034;-65
2022/07/01 11:29:12;;;;;;;7.65;6.97;;;;;;;;;;4988498;28;20070;-65
2022/07/01 11:31:37;;;;;;;8.73;7.75;;;;;;;;;;4989163;28;20021;-65
2022/07/01 11:34:03;;;;;;;9.00;7.28;;;;;;;;;;4988593;28;20495;-65
2022/07/01 11:39:21;;;;;;;7.75;7.15;;;;;;;;;;4989492;28;20444;-65
2022/07/01 11:41:47;;;;;;;7.65;7.05;;;;;;;;;;4991191;28;20153;-65
2022/07/01 11:44:12;;;;;;;8.10;7.35;;;;;;;;;;4988541;28;20057;-65
2022/07/01 11:46:37;;;;;;;10.50;7.70;;;;;;;;;;4989858;28;20665;-65
2022/07/01 11:49:10;;;;;;;8.18;7.57;;;;;;;;;;4988595;28;20077;-65
2022/07/01 11:51:36;;;;;;;8.43;7.78;;;;;;;;;;4989112;28;20161;-64
2022/07/01 11:54:01;;;;;;;7.95;7.28;;;;;;;;;;4985612;28;20057;-66
2022/07/01 11:56:34;;;;;;;9.88;7.18;;;;;;;;;;4988732;28;20408;-67
2022/07/01 11:59:01;;;;;;;8.40;7.80;;;;;;;;;;4987890;28;20599;-71
2022/07/01 12:01:31;;;;;;;8.98;8.07;;;;;;;;;;4989686;28;20120;-63
2022/07/01 12:04:02;;;;;;;9.23;8.20;;;;;;;;;;4987870;28;20026;-61
2022/07/01 12:06:27;;;;;;;8.05;7.28;;;;;;;;;;4989021;28;20022;-62
2022/07/01 12:08:53;;;;;;;9.07;7.93;;;;;;;;;;4988264;28;20065;-60
2022/07/01 12:11:19;;;;;;;8.07;7.38;;;;;;;;;;4989308;28;20516;-64
2022/07/01 12:13:46;;;;;;;9.32;8.32;;;;;;;;;;4987446;28;20026;-69
2022/07/01 12:16:12;;;;;;;8.95;8.15;;;;;;;;;;4987547;28;20026;-62
2022/07/01 12:18:37;;;;;;;7.68;6.72;;;;;;;;;;4987083;28;20072;-65
2022/07/01 12:21:02;;;;;;;8.52;7.72;;;;;;;;;;4988005;28;20610;-68
2022/07/01 12:23:28;;;;;;;8.80;8.00;;;;;;;;;;4987728;28;20040;-68
2022/07/01 12:25:54;;;;;;;9.18;8.25;;;;;;;;;;4987831;28;20038;-66
2022/07/01 12:28:29;;;;;;;8.13;7.32;;;;;;;;;;4988106;28;20032;-65
2022/07/01 12:30:54;;;;;;;;;;;;;;;;;;4986941;28;20034;-59
2022/07/01 12:33:20;;;;;;;9.15;8.35;;;;;;;;;;4988738;28;19909;-60
2022/07/01 12:35:45;;;;;;;9.23;8.55;;;;;;;;;;4985902;28;20074;-62
2022/07/01 12:38:17;;;;;;;8.88;8.18;;;;;;;;;;4986276;28;20033;-60
2022/07/01 12:40:42;;;;;;;7.72;7.05;;;;;;;;;;4988082;28;20022;-61
2022/07/01 12:43:22;;;;;;;8.02;7.10;;;;;;;;;;4988199;28;20052;-61
2022/07/01 12:45:47;;;;;;;8.50;7.28;;;;;;;;;;4988348;28;20104;-61
2022/07/01 12:48:12;;;;;;;7.60;7.00;;;;;;;;;;4988107;28;20032;-61
2022/07/01 12:50:37;;;;;;;8.80;7.70;;;;;;;;;;4987164;28;20042;-61
2022/07/01 12:53:03;;;;;;;6.68;6.05;;;;;;;;;;4987576;28;20069;-61
2022/07/01 12:55:39;;;;;;;7.90;7.18;;;;;;;;;;4988799;28;20033;-60
2022/07/01 12:58:11;;;;;;;6.90;6.40;;;;;;;;;;4988015;28;20018;-61
2022/07/01 13:00:41;;;;;;;6.90;6.22;;;;;;;;;;4986992;28;20034;-61
2022/07/01 13:03:06;;;;;;;7.22;6.80;;;;;;;;;;4987957;28;20026;-61
2022/07/01 13:05:33;;;;;;;8.77;7.15;;;;;;;;;;4988848;28;20559;-61
2022/07/01 13:07:58;;;;;;;7.80;6.47;;;;;;;;;;5002803;28;20034;-62
2022/07/01 13:10:23;;;;;;;7.50;6.90;;;;;;;;;;4988371;28;20045;-61
2022/07/01 13:12:49;;;;;;;6.95;6.45;;;;;;;;;;4987200;28;20041;-61
2022/07/01 13:15:16;;;;;;;7.28;6.78;;;;;;;;;;4987935;28;20465;-62
2022/07/01 13:17:41;;;;;;;7.07;6.47;;;;;;;;;;4986111;28;20081;-61
2022/07/01 13:20:07;;;;;;;6.68;6.18;;;;;;;;;;4987479;28;20344;-62
2022/07/01 13:22:33;;;;;;;7.60;6.90;;;;;;;;;;4987391;28;20037;-62
2022/07/01 13:24:58;;;;;;;8.07;7.50;;;;;;;;;;4984325;28;20567;-61
2022/07/01 13:27:24;;;;;;;6.32;5.93;;;;;;;;;;4985046;28;20030;-66
2022/07/01 13:29:49;;;;;;;7.88;7.28;;;;;;;;;;4985836;28;20041;-63
2022/07/01 13:32:14;;;;;;;7.70;7.15;;;;;;;;;;4987977;28;20504;-62
2022/07/01 13:34:40;;;;;;;7.63;6.95;;;;;;;;;;4985511;28;20082;-63
2022/07/01 13:37:05;;;;;;;6.95;6.45;;;;;;;;;;4984515;28;20029;-64
2022/07/01 13:39:32;;;;;;;7.65;7.03;;;;;;;;;;4999364;28;20488;-64
2022/07/01 13:41:57;;;;;;;7.25;6.75;;;;;;;;;;4986084;28;20084;-65
2022/07/01 13:44:22;;;;;;;7.43;6.68;;;;;;;;;;4981981;28;20113;-64
2022/07/01 13:46:47;;;;;;;7.88;7.18;;;;;;;;;;4986655;28;20408;-65
2022/07/01 13:49:13;;;;;;;6.45;6.05;;;;;;;;;;4984339;28;20042;-63
2022/07/01 13:51:38;;;;;;;6.63;6.13;;;;;;;;;;4987283;28;20438;-64
2022/07/01 13:54:04;;;;;;;7.55;7.00;;;;;;;;;;4986722;28;20104;-64
2022/07/01 13:56:29;;;;;;;7.50;6.78;;;;;;;;;;4985664;28;20031;-64
2022/07/01 13:58:54;;;;;;;6.72;5.57;;;;;;;;;;4985356;28;20182;-64
2022/07/01 14:01:22;;;;;;;7.38;6.75;;;;;;;;;;4984638;28;20081;-63
2022/07/01 14:03:48;;;;;;;7.03;6.43;;;;;;;;;;4984925;28;20031;-63
2022/07/01 14:06:13;;;;;;;9.93;7.50;;;;;;;;;;4984849;28;20076;-64
2022/07/01 14:08:38;;;;;;;8.00;7.40;;;;;;;;;;4985805;28;20519;-64
2022/07/01 14:11:03;;;;;;;6.68;6.18;;;;;;;;;;4986055;28;20875;-65
2022/07/01 14:13:29;;;;;;;7.55;6.95;;;;;;;;;;4989584;28;20031;-63
2022/07/01 14:15:54;;;;;;;8.27;7.47;;;;;;;;;;4988225;28;20440;-64
2022/07/01 14:18:19;;;;;;;7.85;7.18;;;;;;;;;;4989932;28;20491;-63
2022/07/01 14:20:45;;;;;;;7.45;6.70;;;;;;;;;;4988596;28;20031;-63
2022/07/01 14:23:10;;;;;;;6.88;6.25;;;;;;;;;;4989063;28;20026;-63
2022/07/01 14:25:35;;;;;;;7.45;6.80;;;;;;;;;;4988077;28;20137;-63
2022/07/01 14:28:00;;;;;;;7.47;6.53;;;;;;;;;;4989690;28;20381;-63
2022/07/01 14:30:26;;;;;;;7.70;6.90;;;;;;;;;;4990187;28;20912;-63
2022/07/01 14:32:51;;;;;;;8.52;7.65;;;;;;;;;;4987992;28;20823;-64
2022/07/01 14:35:16;;;;;;;6.85;6.22;;;;;;;;;;4988749;28;20026;-63
2022/07/01 14:37:43;;;;;;;6.57;5.97;;;;;;;;;;4986200;28;20034;-63
2022/07/01 14:40:09;;;;;;;6.82;6.22;;;;;;;;;;4990894;28;20072;-63
2022/07/01 14:42:34;;;;;;;7.25;6.28;;;;;;;;;;4989462;28;20153;-64
2022/07/01 14:45:00;;;;;;;8.90;7.97;;;;;;;;;;4990956;28;20026;-64